CheckWX is a tool to help pilots better visualize weather data.  It is not intended as a substitute for an official pre-flight weather briefing.

05:29:47 UTC

KMFD METAR
Mansfield Lahm Regional Airport
Mansfield, Ohio, USA
Current

38 mins ago

KMFD 240452Z 10005KT 10SM SCT055 OVC080 03/M04 A3011 RMK AO2 SLP204 T00331039 400671006
Observed
Jan-24 @ 04:52 UTC
Wind
  • 100° at 5 KTS
Visibility
10 SM
Flight Rules
VFR
Cloud Levels
  • Scattered at 5,500' AGL
  • Overcast at 8,000' AGL
Temperature
C / 37°F
Dewpoint
-4°C / 25°F
Humidity
60%
Altimeter
30.11" Hg
Pressure
1019.62 hPa
Previous

2 hours ago

KMFD 240352Z 11007KT 10SM BKN055 OVC070 03/M04 A3011 RMK AO2 RAB15E38 SLP205 P0000 T00331039
Observed
Jan-24 @ 03:52 UTC
Wind
  • 110° at 7 KTS
Visibility
10 SM
Flight Rules
VFR
Cloud Levels
  • Broken at 5,500' AGL
  • Overcast at 7,000' AGL
Temperature
C / 37°F
Dewpoint
-4°C / 25°F
Humidity
60%
Altimeter
30.11" Hg
Pressure
1019.62 hPa
Current Rain
0.01"
Previous

3 hours ago

KMFD 240252Z 12007KT 10SM BKN070 OVC080 03/M04 A3012 RMK AO2 SLP211 T00331039 56011
Observed
Jan-24 @ 02:52 UTC
Wind
  • 120° at 7 KTS
Visibility
10 SM
Flight Rules
VFR
Cloud Levels
  • Broken at 7,000' AGL
  • Overcast at 8,000' AGL
Temperature
C / 37°F
Dewpoint
-4°C / 25°F
Humidity
60%
Altimeter
30.12" Hg
Pressure
1020.02 hPa